Rimrock, California
Current Conditions -  °F | °C
As of 7:55 PM on Friday 24 Oct 2014 (Local Time) from KL35 Reporting Station
Clear Clear  
Wind Chill: 46°   Ceiling: Unl
Heat Index: 46°   Visibility: 10mi
Dew Point: 28°   Wind: 0mph
Humidity: 50%   Direction: NA
Pressure: 30.27"   Gusts: NA
Location:  34.1944°N, 116.548°W
Report Text: KL35 250255Z AUTO 00000KT 10SM CLR 08/M02 A3027 RMK AO2
Loading
Personal Weather Stations






























Interactive Weather Map
Tropical Storm Tracking
New forecast layout! Learn more

10-Day Weather Forecast

Advertisements
Track Severe Weather on mobile